Terminal Aerodrome Forecast
Issued by NWS

Home | Current Version | Previous Version | Text Only | Print | Product List | Glossary On
Versions: 1 2 3 4 5 6 7 8 9 10 11 12 13 14 15 16 17 18 19 20 21 22
000
FTUS41 KRLX 230255 AAA
TAFCKB
TAF AMD
KCKB 230255Z 2303/2324 20007KT P6SM OVC025
     FM230600 19004KT 4SM BR BKN015
     FM231200 00000KT 3SM BR OVC025
     FM231400 VRB03KT P6SM OVC015
     FM231800 VRB03KT P6SM BKN035=

USA.gov is the U.S. government's official web portal to all federal, state and local government web resources and services.